SGCO/CIO METAR and TAF weather

Enter ICAO airport designator
Station Type Date Time Source
SGCO METAR 2019/10/19 10:00 UTC NOAA

SGCO 191000Z 18010KT 4000 BR OVC007 20/20 Q1015


Station Type Date Time Source
SGCO Decoded METAR 2019/10/19 10:00 UTC NOAA

Concepcion, Paraguay (SGCO) 23-25S 057-18W 74M
Oct 19, 2019 - 06:00 AM EDT / 2019.10.19 1000 UTC
Wind: from the S (180 degrees) at 12 MPH (10 KT):0
Visibility: 2 mile(s):0
Sky conditions: overcast
Weather: mist
Temperature: 68 F (20 C)
Dew Point: 68 F (20 C)
Relative Humidity: 100%
Pressure (altimeter): 29.97 in. Hg (1015 hPa)
ob: SGCO 191000Z 18010KT 4000 BR OVC007 20/20 Q1015
cycle: 10

Station Type Date Time Source
SGCO TAF 2019/10/22 18:00 UTC NOAA

TAF SGCO 221630Z 2218/2318 16007KT 9999 SCT040 TX30/2218Z TN16/2309Z
BECMG 2221/2300 VRB02KT CAVOK
BECMG 2311/2314 12007KT

Example: see airport list